sensor_id;sensor_type;location;lat;lon;timestamp;temperature;humidity
65854;DHT22;52627;48.838;2.402;2023-12-28T00:02:09;12.20;71.31
65854;DHT22;52627;48.838;2.402;2023-12-28T00:04:36;12.22;71.37
65854;DHT22;52627;48.838;2.402;2023-12-28T00:07:03;12.24;71.41
65854;DHT22;52627;48.838;2.402;2023-12-28T00:09:30;12.24;71.44
65854;DHT22;52627;48.838;2.402;2023-12-28T00:11:57;12.24;71.50
65854;DHT22;52627;48.838;2.402;2023-12-28T00:14:25;12.24;71.51
65854;DHT22;52627;48.838;2.402;2023-12-28T00:16:52;12.24;71.58
65854;DHT22;52627;48.838;2.402;2023-12-28T00:19:18;12.23;71.60
65854;DHT22;52627;48.838;2.402;2023-12-28T00:21:47;12.22;71.66
65854;DHT22;52627;48.838;2.402;2023-12-28T00:24:15;12.22;71.70
65854;DHT22;52627;48.838;2.402;2023-12-28T00:26:42;12.22;71.71
65854;DHT22;52627;48.838;2.402;2023-12-28T00:29:09;12.23;71.77
65854;DHT22;52627;48.838;2.402;2023-12-28T00:31:36;12.24;71.79
65854;DHT22;52627;48.838;2.402;2023-12-28T00:34:03;12.23;71.85
65854;DHT22;52627;48.838;2.402;2023-12-28T00:36:30;12.22;71.90
65854;DHT22;52627;48.838;2.402;2023-12-28T00:38:56;12.23;71.90
65854;DHT22;52627;48.838;2.402;2023-12-28T00:41:23;12.23;71.98
65854;DHT22;52627;48.838;2.402;2023-12-28T00:43:50;12.22;72.01
65854;DHT22;52627;48.838;2.402;2023-12-28T00:46:17;12.21;72.07
65854;DHT22;52627;48.838;2.402;2023-12-28T00:48:43;12.22;72.10
65854;DHT22;52627;48.838;2.402;2023-12-28T00:51:11;12.22;72.12
65854;DHT22;52627;48.838;2.402;2023-12-28T00:53:37;12.21;72.19
65854;DHT22;52627;48.838;2.402;2023-12-28T00:56:04;12.20;72.22
65854;DHT22;52627;48.838;2.402;2023-12-28T00:58:31;12.19;72.30
65854;DHT22;52627;48.838;2.402;2023-12-28T01:00:58;12.19;72.30
65854;DHT22;52627;48.838;2.402;2023-12-28T01:03:25;12.17;72.37
65854;DHT22;52627;48.838;2.402;2023-12-28T01:05:52;12.16;72.41
65854;DHT22;52627;48.838;2.402;2023-12-28T01:08:19;12.15;72.48
65854;DHT22;52627;48.838;2.402;2023-12-28T01:10:46;12.13;72.51
65854;DHT22;52627;48.838;2.402;2023-12-28T01:13:13;12.14;72.53
65854;DHT22;52627;48.838;2.402;2023-12-28T01:15:40;12.14;72.62
65854;DHT22;52627;48.838;2.402;2023-12-28T01:18:07;12.11;72.70
65854;DHT22;52627;48.838;2.402;2023-12-28T01:20:34;12.10;72.76
65854;DHT22;52627;48.838;2.402;2023-12-28T01:23:01;12.09;72.80
65854;DHT22;52627;48.838;2.402;2023-12-28T01:25:28;12.08;72.90
65854;DHT22;52627;48.838;2.402;2023-12-28T01:27:55;12.06;72.95
65854;DHT22;52627;48.838;2.402;2023-12-28T01:30:22;12.06;73.03
65854;DHT22;52627;48.838;2.402;2023-12-28T01:32:49;12.06;73.11
65854;DHT22;52627;48.838;2.402;2023-12-28T01:35:16;12.05;73.12
65854;DHT22;52627;48.838;2.402;2023-12-28T01:37:43;12.04;73.21
65854;DHT22;52627;48.838;2.402;2023-12-28T01:40:10;12.03;73.30
65854;DHT22;52627;48.838;2.402;2023-12-28T01:42:37;12.02;73.37
65854;DHT22;52627;48.838;2.402;2023-12-28T01:45:05;12.02;73.48
65854;DHT22;52627;48.838;2.402;2023-12-28T01:47:32;12.01;73.56
65854;DHT22;52627;48.838;2.402;2023-12-28T01:50:00;12.00;73.60
65854;DHT22;52627;48.838;2.402;2023-12-28T01:52:29;12.00;73.70
65854;DHT22;52627;48.838;2.402;2023-12-28T01:54:56;11.99;73.80
65854;DHT22;52627;48.838;2.402;2023-12-28T01:57:23;11.99;73.87
65854;DHT22;52627;48.838;2.402;2023-12-28T01:59:51;11.98;73.92
65854;DHT22;52627;48.838;2.402;2023-12-28T02:02:19;11.97;74.00
65854;DHT22;52627;48.838;2.402;2023-12-28T02:04:45;11.98;74.06
65854;DHT22;52627;48.838;2.402;2023-12-28T02:07:12;11.97;74.10
65854;DHT22;52627;48.838;2.402;2023-12-28T02:09:39;11.97;74.19
65854;DHT22;52627;48.838;2.402;2023-12-28T02:12:06;11.97;74.21
65854;DHT22;52627;48.838;2.402;2023-12-28T02:14:33;11.97;74.30
65854;DHT22;52627;48.838;2.402;2023-12-28T02:17:02;11.98;74.37
65854;DHT22;52627;48.838;2.402;2023-12-28T02:19:47;11.95;74.46
65854;DHT22;52627;48.838;2.402;2023-12-28T02:22:17;11.95;74.56
65854;DHT22;52627;48.838;2.402;2023-12-28T02:25:04;11.94;74.65
65854;DHT22;52627;48.838;2.402;2023-12-28T02:27:39;11.91;74.75
65854;DHT22;52627;48.838;2.402;2023-12-28T02:30:10;11.89;74.82
65854;DHT22;52627;48.838;2.402;2023-12-28T02:38:10;11.86;75.11
65854;DHT22;52627;48.838;2.402;2023-12-28T02:40:38;11.84;75.19
65854;DHT22;52627;48.838;2.402;2023-12-28T02:43:10;11.83;75.28
65854;DHT22;52627;48.838;2.402;2023-12-28T02:45:38;11.82;75.33
65854;DHT22;52627;48.838;2.402;2023-12-28T02:48:06;11.81;75.40
65854;DHT22;52627;48.838;2.402;2023-12-28T02:50:33;11.80;75.50
65854;DHT22;52627;48.838;2.402;2023-12-28T02:53:01;11.79;75.57
65854;DHT22;52627;48.838;2.402;2023-12-28T02:55:29;11.77;75.61
65854;DHT22;52627;48.838;2.402;2023-12-28T02:57:56;11.77;75.68
65854;DHT22;52627;48.838;2.402;2023-12-28T03:00:28;11.75;75.75
65854;DHT22;52627;48.838;2.402;2023-12-28T03:02:56;11.74;75.80
65854;DHT22;52627;48.838;2.402;2023-12-28T03:05:23;11.73;75.85
65854;DHT22;52627;48.838;2.402;2023-12-28T03:07:50;11.71;75.90
65854;DHT22;52627;48.838;2.402;2023-12-28T03:10:17;11.70;75.96
65854;DHT22;52627;48.838;2.402;2023-12-28T03:12:44;11.69;76.01
65854;DHT22;52627;48.838;2.402;2023-12-28T03:15:11;11.68;76.10
65854;DHT22;52627;48.838;2.402;2023-12-28T03:17:38;11.65;76.12
65854;DHT22;52627;48.838;2.402;2023-12-28T03:20:05;11.65;76.20
65854;DHT22;52627;48.838;2.402;2023-12-28T03:22:32;11.64;76.27
65854;DHT22;52627;48.838;2.402;2023-12-28T03:25:00;11.62;76.30
65854;DHT22;52627;48.838;2.402;2023-12-28T03:27:27;11.60;76.36
65854;DHT22;52627;48.838;2.402;2023-12-28T03:29:53;11.59;76.40
65854;DHT22;52627;48.838;2.402;2023-12-28T03:32:20;11.58;76.41
65854;DHT22;52627;48.838;2.402;2023-12-28T03:34:47;11.55;76.49
65854;DHT22;52627;48.838;2.402;2023-12-28T03:37:14;11.53;76.51
65854;DHT22;52627;48.838;2.402;2023-12-28T03:39:41;11.52;76.53
65854;DHT22;52627;48.838;2.402;2023-12-28T03:42:09;11.52;76.60
65854;DHT22;52627;48.838;2.402;2023-12-28T03:44:36;11.51;76.60
65854;DHT22;52627;48.838;2.402;2023-12-28T03:47:03;11.52;76.64
65854;DHT22;52627;48.838;2.402;2023-12-28T03:49:30;11.50;76.69
65854;DHT22;52627;48.838;2.402;2023-12-28T03:51:57;11.49;76.73
65854;DHT22;52627;48.838;2.402;2023-12-28T03:54:24;11.49;76.80
65854;DHT22;52627;48.838;2.402;2023-12-28T03:56:50;11.48;76.81
65854;DHT22;52627;48.838;2.402;2023-12-28T03:59:17;11.48;76.87
65854;DHT22;52627;48.838;2.402;2023-12-28T04:01:44;11.47;76.94
65854;DHT22;52627;48.838;2.402;2023-12-28T04:04:11;11.45;76.98
65854;DHT22;52627;48.838;2.402;2023-12-28T04:06:38;11.45;77.03
65854;DHT22;52627;48.838;2.402;2023-12-28T04:09:05;11.45;77.07
65854;DHT22;52627;48.838;2.402;2023-12-28T04:11:32;11.44;77.10
65854;DHT22;52627;48.838;2.402;2023-12-28T04:13:59;11.43;77.11
65854;DHT22;52627;48.838;2.402;2023-12-28T04:16:26;11.43;77.19
65854;DHT22;52627;48.838;2.402;2023-12-28T04:18:53;11.41;77.21
65854;DHT22;52627;48.838;2.402;2023-12-28T04:21:19;11.40;77.26
65854;DHT22;52627;48.838;2.402;2023-12-28T04:23:47;11.40;77.29
65854;DHT22;52627;48.838;2.402;2023-12-28T04:26:13;11.39;77.31
65854;DHT22;52627;48.838;2.402;2023-12-28T04:28:40;11.37;77.39
65854;DHT22;52627;48.838;2.402;2023-12-28T04:31:07;11.37;77.40
65854;DHT22;52627;48.838;2.402;2023-12-28T04:33:34;11.36;77.44
65854;DHT22;52627;48.838;2.402;2023-12-28T04:36:01;11.35;77.48
65854;DHT22;52627;48.838;2.402;2023-12-28T04:38:30;11.33;77.50
65854;DHT22;52627;48.838;2.402;2023-12-28T04:40:58;11.32;77.56
65854;DHT22;52627;48.838;2.402;2023-12-28T04:43:26;11.30;77.60
65854;DHT22;52627;48.838;2.402;2023-12-28T04:45:53;11.28;77.66
65854;DHT22;52627;48.838;2.402;2023-12-28T04:48:20;11.27;77.70
65854;DHT22;52627;48.838;2.402;2023-12-28T04:50:50;11.26;77.73
65854;DHT22;52627;48.838;2.402;2023-12-28T04:53:17;11.26;77.80
65854;DHT22;52627;48.838;2.402;2023-12-28T04:55:44;11.25;77.83
65854;DHT22;52627;48.838;2.402;2023-12-28T04:58:10;11.23;77.89
65854;DHT22;52627;48.838;2.402;2023-12-28T05:00:38;11.23;77.93
65854;DHT22;52627;48.838;2.402;2023-12-28T05:03:05;11.22;78.00
65854;DHT22;52627;48.838;2.402;2023-12-28T05:05:32;11.21;78.00
65854;DHT22;52627;48.838;2.402;2023-12-28T05:08:00;11.19;78.08
65854;DHT22;52627;48.838;2.402;2023-12-28T05:10:27;11.18;78.12
65854;DHT22;52627;48.838;2.402;2023-12-28T05:12:54;11.19;78.19
65854;DHT22;52627;48.838;2.402;2023-12-28T05:15:28;11.18;78.22
65854;DHT22;52627;48.838;2.402;2023-12-28T05:17:56;11.16;78.30
65854;DHT22;52627;48.838;2.402;2023-12-28T05:20:24;11.16;78.37
65854;DHT22;52627;48.838;2.402;2023-12-28T05:22:50;11.15;78.40
65854;DHT22;52627;48.838;2.402;2023-12-28T05:25:17;11.14;78.44
65854;DHT22;52627;48.838;2.402;2023-12-28T05:27:44;11.13;78.48
65854;DHT22;52627;48.838;2.402;2023-12-28T05:30:11;11.12;78.50
65854;DHT22;52627;48.838;2.402;2023-12-28T05:32:39;11.11;78.51
65854;DHT22;52627;48.838;2.402;2023-12-28T05:35:06;11.10;78.59
65854;DHT22;52627;48.838;2.402;2023-12-28T05:37:33;11.08;78.60
65854;DHT22;52627;48.838;2.402;2023-12-28T05:40:00;11.07;78.61
65854;DHT22;52627;48.838;2.402;2023-12-28T05:42:27;11.06;78.68
65854;DHT22;52627;48.838;2.402;2023-12-28T05:44:54;11.05;78.70
65854;DHT22;52627;48.838;2.402;2023-12-28T05:47:20;11.04;78.76
65854;DHT22;52627;48.838;2.402;2023-12-28T05:49:48;11.03;78.80
65854;DHT22;52627;48.838;2.402;2023-12-28T05:52:15;11.03;78.84
65854;DHT22;52627;48.838;2.402;2023-12-28T05:54:45;11.01;78.90
65854;DHT22;52627;48.838;2.402;2023-12-28T05:57:12;10.99;79.00
65854;DHT22;52627;48.838;2.402;2023-12-28T05:59:39;10.98;79.01
65854;DHT22;52627;48.838;2.402;2023-12-28T06:02:06;10.97;79.08
65854;DHT22;52627;48.838;2.402;2023-12-28T06:04:34;10.96;79.11
65854;DHT22;52627;48.838;2.402;2023-12-28T06:07:02;10.95;79.18
65854;DHT22;52627;48.838;2.402;2023-12-28T06:09:31;10.93;79.20
65854;DHT22;52627;48.838;2.402;2023-12-28T06:11:58;10.94;79.26
65854;DHT22;52627;48.838;2.402;2023-12-28T06:14:25;10.92;79.30
65854;DHT22;52627;48.838;2.402;2023-12-28T06:16:52;10.92;79.34
65854;DHT22;52627;48.838;2.402;2023-12-28T06:19:18;10.91;79.40
65854;DHT22;52627;48.838;2.402;2023-12-28T06:21:45;10.91;79.40
65854;DHT22;52627;48.838;2.402;2023-12-28T06:24:12;10.91;79.41
65854;DHT22;52627;48.838;2.402;2023-12-28T06:26:40;10.90;79.49
65854;DHT22;52627;48.838;2.402;2023-12-28T06:29:11;10.91;79.50
65854;DHT22;52627;48.838;2.402;2023-12-28T06:31:38;10.90;79.50
65854;DHT22;52627;48.838;2.402;2023-12-28T06:34:05;10.90;79.58
65854;DHT22;52627;48.838;2.402;2023-12-28T06:36:33;10.90;79.59
65854;DHT22;52627;48.838;2.402;2023-12-28T06:39:00;10.90;79.63
65854;DHT22;52627;48.838;2.402;2023-12-28T06:41:26;10.89;79.70
65854;DHT22;52627;48.838;2.402;2023-12-28T06:43:53;10.90;79.70
65854;DHT22;52627;48.838;2.402;2023-12-28T06:46:20;10.90;79.75
65854;DHT22;52627;48.838;2.402;2023-12-28T06:48:48;10.90;79.79
65854;DHT22;52627;48.838;2.402;2023-12-28T06:51:19;10.90;79.86
65854;DHT22;52627;48.838;2.402;2023-12-28T06:53:47;10.89;79.90
65854;DHT22;52627;48.838;2.402;2023-12-28T06:56:15;10.88;79.92
65854;DHT22;52627;48.838;2.402;2023-12-28T06:58:42;10.88;79.98
65854;DHT22;52627;48.838;2.402;2023-12-28T07:01:09;10.88;80.00
65854;DHT22;52627;48.838;2.402;2023-12-28T07:03:37;10.87;80.03
65854;DHT22;52627;48.838;2.402;2023-12-28T07:06:04;10.87;80.09
65854;DHT22;52627;48.838;2.402;2023-12-28T07:08:31;10.88;80.10
65854;DHT22;52627;48.838;2.402;2023-12-28T07:11:02;10.87;80.14
65854;DHT22;52627;48.838;2.402;2023-12-28T07:13:30;10.88;80.19
65854;DHT22;52627;48.838;2.402;2023-12-28T07:15:57;10.88;80.20
65854;DHT22;52627;48.838;2.402;2023-12-28T07:18:26;10.89;80.20
65854;DHT22;52627;48.838;2.402;2023-12-28T07:20:53;10.91;80.27
65854;DHT22;52627;48.838;2.402;2023-12-28T07:23:20;10.91;80.29
65854;DHT22;52627;48.838;2.402;2023-12-28T07:25:47;10.91;80.31
65854;DHT22;52627;48.838;2.402;2023-12-28T07:28:14;10.91;80.38
65854;DHT22;52627;48.838;2.402;2023-12-28T07:30:41;10.91;80.40
65854;DHT22;52627;48.838;2.402;2023-12-28T07:33:08;10.91;80.40
65854;DHT22;52627;48.838;2.402;2023-12-28T07:35:34;10.91;80.47
65854;DHT22;52627;48.838;2.402;2023-12-28T07:38:01;10.93;80.50
65854;DHT22;52627;48.838;2.402;2023-12-28T07:40:28;10.92;80.50
65854;DHT22;52627;48.838;2.402;2023-12-28T07:42:55;10.93;80.57
65854;DHT22;52627;48.838;2.402;2023-12-28T07:45:23;10.93;80.60
65854;DHT22;52627;48.838;2.402;2023-12-28T07:47:50;10.93;80.62
65854;DHT22;52627;48.838;2.402;2023-12-28T07:50:18;10.95;80.70
65854;DHT22;52627;48.838;2.402;2023-12-28T07:52:45;10.94;80.70
65854;DHT22;52627;48.838;2.402;2023-12-28T07:55:13;10.95;80.78
65854;DHT22;52627;48.838;2.402;2023-12-28T07:57:40;10.96;80.80
65854;DHT22;52627;48.838;2.402;2023-12-28T08:00:07;10.96;80.84
65854;DHT22;52627;48.838;2.402;2023-12-28T08:02:35;10.95;80.90
65854;DHT22;52627;48.838;2.402;2023-12-28T08:05:03;10.95;80.90
65854;DHT22;52627;48.838;2.402;2023-12-28T08:07:31;10.94;80.96
65854;DHT22;52627;48.838;2.402;2023-12-28T08:09:58;10.95;80.99
65854;DHT22;52627;48.838;2.402;2023-12-28T08:12:25;10.96;81.00
65854;DHT22;52627;48.838;2.402;2023-12-28T08:14:54;10.95;81.06
65854;DHT22;52627;48.838;2.402;2023-12-28T08:17:21;10.97;81.10
65854;DHT22;52627;48.838;2.402;2023-12-28T08:19:48;10.98;81.13
65854;DHT22;52627;48.838;2.402;2023-12-28T08:22:15;11.00;81.19
65854;DHT22;52627;48.838;2.402;2023-12-28T08:24:42;11.02;81.20
65854;DHT22;52627;48.838;2.402;2023-12-28T08:27:09;11.04;81.21
65854;DHT22;52627;48.838;2.402;2023-12-28T08:29:36;11.06;81.21
65854;DHT22;52627;48.838;2.402;2023-12-28T08:32:03;11.09;81.24
65854;DHT22;52627;48.838;2.402;2023-12-28T08:34:30;11.11;81.23
65854;DHT22;52627;48.838;2.402;2023-12-28T08:36:57;11.15;81.24
65854;DHT22;52627;48.838;2.402;2023-12-28T08:39:24;11.18;81.20
65854;DHT22;52627;48.838;2.402;2023-12-28T08:41:51;11.20;81.20
65854;DHT22;52627;48.838;2.402;2023-12-28T08:44:18;11.22;81.21
65854;DHT22;52627;48.838;2.402;2023-12-28T08:46:45;11.24;81.20
65854;DHT22;52627;48.838;2.402;2023-12-28T08:49:12;11.24;81.20
65854;DHT22;52627;48.838;2.402;2023-12-28T08:51:39;11.25;81.20
65854;DHT22;52627;48.838;2.402;2023-12-28T08:54:10;11.27;81.20
65854;DHT22;52627;48.838;2.402;2023-12-28T08:56:37;11.28;81.20
65854;DHT22;52627;48.838;2.402;2023-12-28T08:59:04;11.29;81.20
65854;DHT22;52627;48.838;2.402;2023-12-28T09:01:31;11.30;81.20
65854;DHT22;52627;48.838;2.402;2023-12-28T09:03:58;11.30;81.20
65854;DHT22;52627;48.838;2.402;2023-12-28T09:06:25;11.31;81.16
65854;DHT22;52627;48.838;2.402;2023-12-28T09:08:52;11.32;81.19
65854;DHT22;52627;48.838;2.402;2023-12-28T09:11:20;11.33;81.19
65854;DHT22;52627;48.838;2.402;2023-12-28T09:13:47;11.36;81.16
65854;DHT22;52627;48.838;2.402;2023-12-28T09:16:14;11.38;81.13
65854;DHT22;52627;48.838;2.402;2023-12-28T09:18:42;11.39;81.11
65854;DHT22;52627;48.838;2.402;2023-12-28T09:21:10;11.41;81.10
65854;DHT22;52627;48.838;2.402;2023-12-28T09:23:39;11.43;81.02
65854;DHT22;52627;48.838;2.402;2023-12-28T09:26:09;11.46;80.97
65854;DHT22;52627;48.838;2.402;2023-12-28T09:28:36;11.48;80.90
65854;DHT22;52627;48.838;2.402;2023-12-28T09:31:03;11.50;80.89
65854;DHT22;52627;48.838;2.402;2023-12-28T09:33:31;11.52;80.81
65854;DHT22;52627;48.838;2.402;2023-12-28T09:35:58;11.53;80.79
65854;DHT22;52627;48.838;2.402;2023-12-28T09:38:26;11.56;80.74
65854;DHT22;52627;48.838;2.402;2023-12-28T09:40:53;11.57;80.71
65854;DHT22;52627;48.838;2.402;2023-12-28T09:43:22;11.60;80.66
65854;DHT22;52627;48.838;2.402;2023-12-28T09:46:06;11.60;80.60
65854;DHT22;52627;48.838;2.402;2023-12-28T09:48:37;11.61;80.58
65854;DHT22;52627;48.838;2.402;2023-12-28T09:51:05;11.64;80.51
65854;DHT22;52627;48.838;2.402;2023-12-28T09:53:32;11.65;80.46
65854;DHT22;52627;48.838;2.402;2023-12-28T09:55:59;11.67;80.41
65854;DHT22;52627;48.838;2.402;2023-12-28T09:58:27;11.68;80.38
65854;DHT22;52627;48.838;2.402;2023-12-28T10:00:56;11.68;80.30
65854;DHT22;52627;48.838;2.402;2023-12-28T10:03:23;11.68;80.29
65854;DHT22;52627;48.838;2.402;2023-12-28T10:05:50;11.69;80.20
65854;DHT22;52627;48.838;2.402;2023-12-28T10:08:16;11.69;80.19
65854;DHT22;52627;48.838;2.402;2023-12-28T10:10:44;11.70;80.10
65854;DHT22;52627;48.838;2.402;2023-12-28T10:13:17;11.71;80.08
65854;DHT22;52627;48.838;2.402;2023-12-28T10:15:44;11.73;80.01
65854;DHT22;52627;48.838;2.402;2023-12-28T10:18:11;11.77;79.94
65854;DHT22;52627;48.838;2.402;2023-12-28T10:20:38;11.78;79.87
65854;DHT22;52627;48.838;2.402;2023-12-28T10:23:05;11.80;79.80
65854;DHT22;52627;48.838;2.402;2023-12-28T10:25:32;11.81;79.73
65854;DHT22;52627;48.838;2.402;2023-12-28T10:28:03;11.82;79.70
65854;DHT22;52627;48.838;2.402;2023-12-28T10:30:34;11.83;79.61
65854;DHT22;52627;48.838;2.402;2023-12-28T10:33:04;11.84;79.54
65854;DHT22;52627;48.838;2.402;2023-12-28T10:35:33;11.85;79.50
65854;DHT22;52627;48.838;2.402;2023-12-28T10:38:00;11.87;79.48
65854;DHT22;52627;48.838;2.402;2023-12-28T10:40:30;11.89;79.42
65854;DHT22;52627;48.838;2.402;2023-12-28T10:42:58;11.91;79.34
65854;DHT22;52627;48.838;2.402;2023-12-28T10:45:34;11.92;79.29
65854;DHT22;52627;48.838;2.402;2023-12-28T10:48:05;11.94;79.23
65854;DHT22;52627;48.838;2.402;2023-12-28T11:01:54;12.12;78.87
65854;DHT22;52627;48.838;2.402;2023-12-28T11:04:24;12.15;78.80
65854;DHT22;52627;48.838;2.402;2023-12-28T11:07:01;12.20;78.71
65854;DHT22;52627;48.838;2.402;2023-12-28T11:09:30;12.23;78.65
65854;DHT22;52627;48.838;2.402;2023-12-28T11:11:58;12.26;78.52
65854;DHT22;52627;48.838;2.402;2023-12-28T11:14:27;12.27;78.41
65854;DHT22;52627;48.838;2.402;2023-12-28T11:16:55;12.29;78.32
65854;DHT22;52627;48.838;2.402;2023-12-28T11:19:22;12.30;78.20
65854;DHT22;52627;48.838;2.402;2023-12-28T11:21:49;12.32;78.14
65854;DHT22;52627;48.838;2.402;2023-12-28T11:24:17;12.33;78.03
65854;DHT22;52627;48.838;2.402;2023-12-28T11:26:44;12.36;77.94
65854;DHT22;52627;48.838;2.402;2023-12-28T11:29:19;12.36;77.84
65854;DHT22;52627;48.838;2.402;2023-12-28T11:31:53;12.37;77.73
65854;DHT22;52627;48.838;2.402;2023-12-28T11:34:25;12.37;77.64
65854;DHT22;52627;48.838;2.402;2023-12-28T11:36:57;12.38;77.59
65854;DHT22;52627;48.838;2.402;2023-12-28T11:39:30;12.38;77.55
65854;DHT22;52627;48.838;2.402;2023-12-28T11:42:03;12.38;77.50
65854;DHT22;52627;48.838;2.402;2023-12-28T11:44:42;12.39;77.43
65854;DHT22;52627;48.838;2.402;2023-12-28T11:47:11;12.41;77.40
65854;DHT22;52627;48.838;2.402;2023-12-28T11:49:42;12.44;77.32
65854;DHT22;52627;48.838;2.402;2023-12-28T11:52:26;12.46;77.23
65854;DHT22;52627;48.838;2.402;2023-12-28T11:54:55;12.48;77.15
65854;DHT22;52627;48.838;2.402;2023-12-28T11:57:22;12.48;77.10
65854;DHT22;52627;48.838;2.402;2023-12-28T11:59:55;12.48;77.10
65854;DHT22;52627;48.838;2.402;2023-12-28T12:02:24;12.52;77.04
65854;DHT22;52627;48.838;2.402;2023-12-28T12:04:55;12.52;77.00
65854;DHT22;52627;48.838;2.402;2023-12-28T12:07:28;12.53;76.99
65854;DHT22;52627;48.838;2.402;2023-12-28T12:09:58;12.51;76.92
65854;DHT22;52627;48.838;2.402;2023-12-28T12:12:27;12.52;76.90
65854;DHT22;52627;48.838;2.402;2023-12-28T12:14:54;12.56;76.81
65854;DHT22;52627;48.838;2.402;2023-12-28T12:17:22;12.58;76.81
65854;DHT22;52627;48.838;2.402;2023-12-28T12:19:49;12.63;76.80
65854;DHT22;52627;48.838;2.402;2023-12-28T12:22:19;12.68;76.78
65854;DHT22;52627;48.838;2.402;2023-12-28T12:24:46;12.71;76.70
65854;DHT22;52627;48.838;2.402;2023-12-28T12:27:15;12.72;76.68
65854;DHT22;52627;48.838;2.402;2023-12-28T12:29:43;12.73;76.61
65854;DHT22;52627;48.838;2.402;2023-12-28T12:32:10;12.71;76.60
65854;DHT22;52627;48.838;2.402;2023-12-28T12:34:38;12.69;76.53
65854;DHT22;52627;48.838;2.402;2023-12-28T12:37:06;12.68;76.50
65854;DHT22;52627;48.838;2.402;2023-12-28T12:39:33;12.69;76.47
65854;DHT22;52627;48.838;2.402;2023-12-28T12:42:00;12.66;76.41
65854;DHT22;52627;48.838;2.402;2023-12-28T12:44:27;12.65;76.42
65854;DHT22;52627;48.838;2.402;2023-12-28T12:46:58;12.66;76.40
65854;DHT22;52627;48.838;2.402;2023-12-28T12:49:26;12.67;76.40
65854;DHT22;52627;48.838;2.402;2023-12-28T12:51:53;12.69;76.40
65854;DHT22;52627;48.838;2.402;2023-12-28T12:54:21;12.70;76.40
65854;DHT22;52627;48.838;2.402;2023-12-28T12:56:49;12.73;76.35
65854;DHT22;52627;48.838;2.402;2023-12-28T12:59:16;12.78;76.32
65854;DHT22;52627;48.838;2.402;2023-12-28T13:01:44;12.82;76.30
65854;DHT22;52627;48.838;2.402;2023-12-28T13:04:16;12.85;76.23
65854;DHT22;52627;48.838;2.402;2023-12-28T13:06:43;12.84;76.12
65854;DHT22;52627;48.838;2.402;2023-12-28T13:09:10;12.82;76.10
65854;DHT22;52627;48.838;2.402;2023-12-28T13:11:38;12.82;76.10
65854;DHT22;52627;48.838;2.402;2023-12-28T13:14:04;12.81;76.10
65854;DHT22;52627;48.838;2.402;2023-12-28T13:16:32;12.82;76.12
65854;DHT22;52627;48.838;2.402;2023-12-28T13:18:58;12.84;76.09
65854;DHT22;52627;48.838;2.402;2023-12-28T13:21:25;12.86;76.03
65854;DHT22;52627;48.838;2.402;2023-12-28T13:23:52;12.84;76.00
65854;DHT22;52627;48.838;2.402;2023-12-28T13:26:19;12.84;76.00
65854;DHT22;52627;48.838;2.402;2023-12-28T13:28:46;12.83;76.00
65854;DHT22;52627;48.838;2.402;2023-12-28T13:31:14;12.82;75.93
65854;DHT22;52627;48.838;2.402;2023-12-28T13:33:41;12.82;75.88
65854;DHT22;52627;48.838;2.402;2023-12-28T13:36:08;12.82;75.84
65854;DHT22;52627;48.838;2.402;2023-12-28T13:38:35;12.81;75.77
65854;DHT22;52627;48.838;2.402;2023-12-28T13:41:02;12.81;75.69
65854;DHT22;52627;48.838;2.402;2023-12-28T13:43:29;12.81;75.63
65854;DHT22;52627;48.838;2.402;2023-12-28T13:45:56;12.80;75.60
65854;DHT22;52627;48.838;2.402;2023-12-28T13:48:23;12.82;75.53
65854;DHT22;52627;48.838;2.402;2023-12-28T13:50:50;12.82;75.47
65854;DHT22;52627;48.838;2.402;2023-12-28T13:53:17;12.82;75.43
65854;DHT22;52627;48.838;2.402;2023-12-28T13:55:44;12.82;75.40
65854;DHT22;52627;48.838;2.402;2023-12-28T13:58:12;12.83;75.31
65854;DHT22;52627;48.838;2.402;2023-12-28T14:00:39;12.82;75.28
65854;DHT22;52627;48.838;2.402;2023-12-28T14:03:07;12.83;75.25
65854;DHT22;52627;48.838;2.402;2023-12-28T14:05:34;12.84;75.20
65854;DHT22;52627;48.838;2.402;2023-12-28T14:08:03;12.84;75.11
65854;DHT22;52627;48.838;2.402;2023-12-28T14:10:30;12.82;75.02
65854;DHT22;52627;48.838;2.402;2023-12-28T14:12:57;12.80;75.00
65854;DHT22;52627;48.838;2.402;2023-12-28T14:15:24;12.79;74.93
65854;DHT22;52627;48.838;2.402;2023-12-28T14:17:51;12.78;74.86
65854;DHT22;52627;48.838;2.402;2023-12-28T14:20:18;12.76;74.82
65854;DHT22;52627;48.838;2.402;2023-12-28T14:22:45;12.77;74.80
65854;DHT22;52627;48.838;2.402;2023-12-28T14:25:12;12.77;74.78
65854;DHT22;52627;48.838;2.402;2023-12-28T14:27:40;12.77;74.70
65854;DHT22;52627;48.838;2.402;2023-12-28T14:30:07;12.78;74.70
65854;DHT22;52627;48.838;2.402;2023-12-28T14:32:36;12.79;74.68
65854;DHT22;52627;48.838;2.402;2023-12-28T14:35:04;12.80;74.61
65854;DHT22;52627;48.838;2.402;2023-12-28T14:37:32;12.80;74.60
65854;DHT22;52627;48.838;2.402;2023-12-28T14:39:59;12.80;74.60
65854;DHT22;52627;48.838;2.402;2023-12-28T14:42:26;12.79;74.57
65854;DHT22;52627;48.838;2.402;2023-12-28T14:44:53;12.78;74.58
65854;DHT22;52627;48.838;2.402;2023-12-28T14:47:20;12.78;74.53
65854;DHT22;52627;48.838;2.402;2023-12-28T14:49:46;12.79;74.50
65854;DHT22;52627;48.838;2.402;2023-12-28T14:52:14;12.81;74.57
65854;DHT22;52627;48.838;2.402;2023-12-28T14:54:40;12.80;74.57
65854;DHT22;52627;48.838;2.402;2023-12-28T14:57:07;12.81;74.60
65854;DHT22;52627;48.838;2.402;2023-12-28T14:59:35;12.82;74.60
65854;DHT22;52627;48.838;2.402;2023-12-28T15:02:02;12.81;74.63
65854;DHT22;52627;48.838;2.402;2023-12-28T15:04:29;12.82;74.64
65854;DHT22;52627;48.838;2.402;2023-12-28T15:06:56;12.81;74.69
65854;DHT22;52627;48.838;2.402;2023-12-28T15:09:23;12.81;74.69
65854;DHT22;52627;48.838;2.402;2023-12-28T15:11:50;12.81;74.70
65854;DHT22;52627;48.838;2.402;2023-12-28T15:14:17;12.81;74.70
65854;DHT22;52627;48.838;2.402;2023-12-28T15:16:44;12.78;74.70
65854;DHT22;52627;48.838;2.402;2023-12-28T15:19:12;12.79;74.72
65854;DHT22;52627;48.838;2.402;2023-12-28T15:21:41;12.80;74.76
65854;DHT22;52627;48.838;2.402;2023-12-28T15:24:08;12.81;74.80
65854;DHT22;52627;48.838;2.402;2023-12-28T15:26:35;12.81;74.80
65854;DHT22;52627;48.838;2.402;2023-12-28T15:29:02;12.81;74.81
65854;DHT22;52627;48.838;2.402;2023-12-28T15:31:30;12.81;74.88
65854;DHT22;52627;48.838;2.402;2023-12-28T15:33:57;12.80;74.90
65854;DHT22;52627;48.838;2.402;2023-12-28T15:36:24;12.77;74.93
65854;DHT22;52627;48.838;2.402;2023-12-28T15:38:50;12.75;74.99
65854;DHT22;52627;48.838;2.402;2023-12-28T15:41:17;12.73;75.00
65854;DHT22;52627;48.838;2.402;2023-12-28T15:43:44;12.73;75.08
65854;DHT22;52627;48.838;2.402;2023-12-28T15:46:11;12.71;75.11
65854;DHT22;52627;48.838;2.402;2023-12-28T15:48:37;12.70;75.16
65854;DHT22;52627;48.838;2.402;2023-12-28T15:51:07;12.67;75.22